Terminal Aerodrome Forecast
Issued by NWS Northern Indiana

Home | Current Version | Previous Version | Text Only | Print | Product List | Glossary On
Versions: 1 2 3 4 5 6 7 8 9 10 11 12 13 14 15
656
FTUS43 KIWX 251120
TAFFWA
TAF
KFWA 251120Z 2512/2612 17006KT P6SM OVC120
     FM251500 17007KT P6SM VCSH OVC080
     FM252000 12009KT P6SM VCSH OVC070
     FM260300 10008KT 5SM SHRA BR OVC060
     FM260600 11007KT 2SM SHRA BR OVC025
     FM260900 12007KT 1 1/2SM SHRA BR OVC015=

USA.gov is the U.S. government's official web portal to all federal, state and local government web resources and services.